Terminal Aerodrome Forecast
Issued by NWS Springfield, MO

Home | Current Version | Previous Version | Text Only | Print | Product List | Glossary On
Versions: 1 2 3 4 5 6 7 8 9 10 11 12 13 14 15 16 17 18 19 20 21 22 23 24 25 26 27 28 29 30
000
FTUS43 KSGF 180520
TAFSGF
TAF
KSGF 180520Z 1806/1906 VRB03KT 2SM BR OVC003
     FM180800 VRB02KT 1SM BR OVC002
      TEMPO 1810/1814 1/2SM FG OVC002
     FM181400 16005KT 4SM BR BKN007 OVC015
     FM181600 16006KT P6SM SCT015 OVC025
     FM190200 15004KT 4SM BR OVC003=

USA.gov is the U.S. government's official web portal to all federal, state and local government web resources and services.